Flight Track Log - Related Links

Times and Time Zones

All times are in EDT time to prevent confusion due to time zone crossing. See the TAM8009 flight status page for this flight to view local times or setup timezone preferences in your user account.

Time Position Orientation Groundspeed Altitude Reporting Facility
EDT Latitude Longitude Course Direction KTS MPH feet Rate Location/Type
Sat 11:09:07 AM -33.9310 -57.9960 36° Northeast 394 453 18,400  Level FlightAware ADS-B
Sat 11:09:57 AM -33.8570 -57.9320 36° Northeast 408 470 19,700 1,200 Climbing FlightAware ADS-B
Sat 11:10:47 AM -33.8240 -57.9030 36° Northeast 415 478 20,400 467 Climbing FlightAware ADS-B
Sat 11:11:27 AM -33.7710 -57.8570 36° Northeast 415 478 20,400  Level FlightAware ADS-B
Sat 11:12:17 AM -33.7050 -57.8000 36° Northeast 415 478 20,400  Level FlightAware ADS-B
Sat 11:12:47 AM -33.6660 -57.7650 37° Northeast 415 478 20,400  Level FlightAware ADS-B
Sat 11:13:17 AM -33.6260 -57.7300 36° Northeast 415 478 20,400  Level FlightAware ADS-B
Sat 11:13:47 AM -33.5870 -57.6960 36° Northeast 415 478 20,400 1,792 Level FlightAware ADS-B
Sat 11:16:00 AM -33.4280 -57.4919 47° Northeast  Level Estimated
Sat 11:17:00 AM -33.3561 -57.4000 47° Northeast  Level Estimated
Sat 11:18:00 AM -33.2842 -57.3083 47° Northeast  Level Estimated
Sat 11:19:00 AM -33.2122 -57.2168 47° Northeast  Level Estimated
Sat 11:19:12 AM -33.2190 -56.8240 47° Northeast 537 618 31,000  Level FlightAware ADS-B
Sat 11:19:52 AM -33.2280 -56.7160 96° East 538 619 31,800 1,624 Climbing FlightAware ADS-B
Sat 11:20:37 AM -33.2400 -56.5750 96° East 519 597 33,300 1,846 Climbing FlightAware ADS-B
Sat 11:20:57 AM -33.2450 -56.5270 97° East 514 592 33,800 1,200 Climbing FlightAware ADS-B
Sat 11:21:37 AM -33.2580 -56.4020 97° East 513 590 34,500 1,200 Climbing FlightAware ADS-B
Sat 11:22:12 AM -33.2690 -56.3030 98° East 503 579 35,300 1,050 Climbing FlightAware ADS-B
Sat 11:22:57 AM -33.2820 -56.1820 97° East 499 574 35,900 424 Climbing FlightAware ADS-B
Sat 11:23:37 AM -33.2920 -56.0740 96° East 497 572 35,900 71 Level FlightAware ADS-B
Sat 11:24:22 AM -33.3040 -55.9580 97° East 494 568 36,000 71 Climbing FlightAware ADS-B
Sat 11:25:02 AM -33.3140 -55.8500 96° East 488 562 36,000 -80 Level FlightAware ADS-B
Sat 11:25:37 AM -33.3220 -55.7630 96° East 486 559 35,900 -353 Descending FlightAware ADS-B
Sat 11:26:27 AM -33.3350 -55.6260 97° East 479 551 35,500 -470 Descending FlightAware ADS-B
Sat 11:27:32 AM -33.3360 -55.5280 91° East 455 524 35,000 -250 Descending FlightAware ADS-B
Sat 11:28:27 AM -33.2910 -55.3350 74° East 458 527 35,000  Level FlightAware ADS-B
Sat 11:29:22 AM -33.2540 -55.1950 72° East 458 527 35,000  Level FlightAware ADS-B
Sat 11:30:37 AM -33.2060 -55.0200 72° East 451 519 35,000  Level FlightAware ADS-B
Sat 11:31:22 AM -33.1400 -54.9390 46° Northeast 422 486 35,000  Level FlightAware ADS-B
Sat 11:31:57 AM -33.0860 -54.8990 32° Northeast 416 479 35,000  Level FlightAware ADS-B
Sat 11:33:07 AM -32.9760 -54.8180 32° Northeast 410 472 35,000  Level FlightAware ADS-B
Sat 11:34:07 AM -32.8680 -54.7370 32° Northeast 414 476 35,000  Level FlightAware ADS-B
Sat 11:35:02 AM -32.7870 -54.6770 32° Northeast 420 483 35,000  Level FlightAware ADS-B
Sat 11:35:42 AM -32.7100 -54.6200 32° Northeast 418 481 35,000  Level FlightAware ADS-B
Sat 11:36:27 AM -32.6360 -54.5650 32° Northeast 422 486 35,000  Level FlightAware ADS-B
Sat 11:37:47 AM -32.5150 -54.4760 32° Northeast 421 484 35,000  Level FlightAware ADS-B
Sat 11:38:32 AM -32.4360 -54.4190 31° Northeast 421 484 35,000  Level FlightAware ADS-B
Sat 11:39:02 AM -32.3840 -54.3800 32° Northeast 421 484 35,000  Level FlightAware ADS-B
Sat 11:39:57 AM -32.2880 -54.3090 32° Northeast 424 488 35,000  Level FlightAware ADS-B
Sat 11:40:37 AM -32.2240 -54.2620 32° Northeast 427 491 35,000  Level FlightAware ADS-B
Sat 11:41:17 AM -32.1510 -54.2090 32° Northeast 441 507 35,000  Level FlightAware ADS-B
Sat 11:42:02 AM -32.0780 -54.1560 32° Northeast 452 520 35,000  Level FlightAware ADS-B
Sat 11:42:27 AM -32.0320 -54.1220 32° Northeast 456 525 35,000 240 Level FlightAware ADS-B
Sat 11:43:17 AM -31.9400 -54.0550 32° Northeast 454 522 35,300 667 Climbing FlightAware ADS-B
Sat 11:43:57 AM -31.8690 -54.0030 32° Northeast 451 519 36,000 776 Climbing FlightAware ADS-B
Sat 11:44:42 AM -31.8010 -53.9310 42° Northeast 463 533 36,400 424 Climbing FlightAware ADS-B
Sat 11:45:22 AM -31.7400 -53.8630 43° Northeast 467 537 36,600 282 Climbing FlightAware ADS-B
Sat 11:46:07 AM -31.6680 -53.7840 43° Northeast 474 545 36,800 282 Climbing FlightAware ADS-B
Sat 11:46:47 AM -31.6070 -53.7150 44° Northeast 476 548 37,000 150 Climbing FlightAware ADS-B
Sat 11:47:27 AM -31.5420 -53.6440 43° Northeast 479 551 37,000  Level FlightAware ADS-B
Sat 11:49:37 AM -31.3320 -53.4140 43° Northeast 480 552 37,000  Level FlightAware ADS-B
Sat 11:50:17 AM -31.2600 -53.3350 43° Northeast 483 556 37,000  Level FlightAware ADS-B
Sat 11:51:02 AM -31.1860 -53.2540 43° Northeast 487 560 37,000  Level FlightAware ADS-B
Sat 11:51:42 AM -31.1200 -53.1820 43° Northeast 486 559 37,000  Level FlightAware ADS-B
Sat 11:52:22 AM -31.0570 -53.1140 43° Northeast 485 558 37,000  Level FlightAware ADS-B
Sat 11:53:07 AM -30.9780 -53.0280 43° Northeast 481 554 37,000  Level FlightAware ADS-B
Sat 11:53:47 AM -30.9160 -52.9610 43° Northeast 480 552 37,000  Level FlightAware ADS-B
Sat 11:54:27 AM -30.8510 -52.8910 43° Northeast 479 551 37,000  Level FlightAware ADS-B
Sat 11:55:12 AM -30.7770 -52.8110 43° Northeast 481 554 37,000  Level FlightAware ADS-B
Sat 11:55:57 AM -30.7030 -52.7310 43° Northeast 483 556 37,000  Level FlightAware ADS-B
Sat 11:56:32 AM -30.6480 -52.6720 43° Northeast 485 558 37,000  Level FlightAware ADS-B
Sat 11:57:02 AM -30.5940 -52.6150 42° Northeast 486 559 37,000  Level FlightAware ADS-B
Sat 11:57:42 AM -30.5290 -52.5460 42° Northeast 485 558 37,000  Level FlightAware ADS-B
Sat 11:58:27 AM -30.4580 -52.4700 43° Northeast 483 556 37,000  Level FlightAware ADS-B
Sat 11:58:57 AM -30.4070 -52.4160 42° Northeast 481 554 37,000  Level FlightAware ADS-B
Sat 11:59:37 AM -30.3420 -52.3460 43° Northeast 479 551 37,000  Level FlightAware ADS-B
Sat 12:00:17 PM -30.2770 -52.2780 42° Northeast 476 548 37,000  Level FlightAware ADS-B
Sat 12:01:02 PM -30.2020 -52.1980 43° Northeast 474 545 37,000  Level FlightAware ADS-B
Sat 12:01:42 PM -30.1370 -52.1300 42° Northeast 473 544 37,000  Level FlightAware ADS-B
Sat 12:02:27 PM -30.0670 -52.0560 42° Northeast 472 543 37,000  Level FlightAware ADS-B
Sat 12:03:07 PM -30.0020 -51.9870 43° Northeast 470 541 37,000  Level FlightAware ADS-B
Sat 12:03:47 PM -29.9370 -51.9190 42° Northeast 470 541 37,000  Level FlightAware ADS-B
Sat 12:04:32 PM -29.8640 -51.8420 42° Northeast 469 540 37,000  Level FlightAware ADS-B
Sat 12:05:12 PM -29.7990 -51.7750 42° Northeast 470 541 37,000  Level FlightAware ADS-B
Sat 12:05:57 PM -29.7290 -51.7010 43° Northeast 472 543 37,000  Level FlightAware ADS-B
Sat 12:06:37 PM -29.6640 -51.6330 42° Northeast 473 544 37,000  Level FlightAware ADS-B
Sat 12:07:22 PM -29.5890 -51.5560 42° Northeast 475 547 37,000  Level FlightAware ADS-B
Sat 12:08:02 PM -29.5240 -51.4870 43° Northeast 478 550 37,000  Level FlightAware ADS-B
Sat 12:08:52 PM -29.4410 -51.4020 42° Northeast 480 552 37,000  Level FlightAware ADS-B
Sat 12:09:27 PM -29.3850 -51.3430 43° Northeast 480 552 37,000  Level FlightAware ADS-B
Sat 12:10:02 PM -29.3260 -51.2820 42° Northeast 479 551 37,000  Level FlightAware ADS-B
Sat 12:10:47 PM -29.2530 -51.2080 41° Northeast 479 551 37,000  Level FlightAware ADS-B
Sat 12:11:27 PM -29.1870 -51.1400 42° Northeast 479 551 37,000  Level FlightAware ADS-B
Sat 12:11:57 PM -29.1380 -51.0890 42° Northeast 479 551 37,000  Level FlightAware ADS-B
Sat 12:12:42 PM -29.0620 -51.0120 42° Northeast 478 550 37,000  Level FlightAware ADS-B
Sat 12:13:22 PM -28.9960 -50.9440 42° Northeast 477 549 37,000  Level FlightAware ADS-B
Sat 12:14:02 PM -28.9320 -50.8790 42° Northeast 478 550 37,000  Level FlightAware ADS-B
Sat 12:14:47 PM -28.8580 -50.8020 42° Northeast 478 550 37,000  Level FlightAware ADS-B
Sat 12:15:27 PM -28.7920 -50.7350 42° Northeast 479 551 37,000  Level FlightAware ADS-B
Sat 12:16:07 PM -28.7260 -50.6690 41° Northeast 480 552 37,000  Level FlightAware ADS-B
Sat 12:16:47 PM -28.6590 -50.6010 42° Northeast 481 554 37,000  Level FlightAware ADS-B
Sat 12:17:32 PM -28.5820 -50.5230 42° Northeast 481 554 37,000  Level FlightAware ADS-B
Sat 12:18:17 PM -28.5090 -50.4490 42° Northeast 480 552 37,000  Level FlightAware ADS-B
Sat 12:18:57 PM -28.4440 -50.3840 41° Northeast 479 551 37,000  Level FlightAware ADS-B
Sat 12:19:42 PM -28.3680 -50.3060 42° Northeast 480 552 37,000  Level FlightAware ADS-B
Sat 12:20:17 PM -28.3100 -50.2490 41° Northeast 481 554 37,000  Level FlightAware ADS-B
Sat 12:21:02 PM -28.2360 -50.1740 42° Northeast 481 554 37,000  Level FlightAware ADS-B
Sat 12:21:37 PM -28.1760 -50.1150 41° Northeast 481 554 37,000  Level FlightAware ADS-B
Sat 12:22:17 PM -28.1100 -50.0490 41° Northeast 481 554 37,000  Level FlightAware ADS-B
Sat 12:23:02 PM -28.0370 -49.9760 41° Northeast 481 554 37,000  Level FlightAware ADS-B
Sat 12:23:42 PM -27.9660 -49.9050 41° Northeast 478 550 37,000  Level FlightAware ADS-B
Sat 12:24:27 PM -27.8930 -49.8310 42° Northeast 478 550 37,000  Level FlightAware ADS-B
Sat 12:25:07 PM -27.8290 -49.7680 41° Northeast 478 550 37,000  Level FlightAware ADS-B
Sat 12:25:47 PM -27.7600 -49.7000 41° Northeast 479 551 37,000  Level FlightAware ADS-B
Sat 12:26:27 PM -27.7040 -49.6450 41° Northeast 479 551 37,000  Level FlightAware ADS-B
Sat 12:27:52 PM -27.5620 -49.5050 41° Northeast 483 556 37,000  Level FlightAware ADS-B
Sat 12:28:32 PM -27.4820 -49.4260 41° Northeast 488 562 37,000  Level FlightAware ADS-B
Sat 12:29:22 PM -27.4000 -49.3460 41° Northeast 490 564 37,000  Level FlightAware ADS-B
Sat 12:29:57 PM -27.3410 -49.2870 42° Northeast 490 564 37,000  Level FlightAware ADS-B
Sat 12:30:32 PM -27.2810 -49.2290 41° Northeast 491 565 37,000  Level FlightAware ADS-B
Sat 12:31:02 PM -27.2310 -49.1800 41° Northeast 489 563 37,000  Level FlightAware ADS-B
Sat 12:31:47 PM -27.1550 -49.1060 41° Northeast 486 559 37,000  Level FlightAware ADS-B
Sat 12:32:22 PM -27.0900 -49.0430 41° Northeast 485 558 37,000  Level FlightAware ADS-B
Sat 12:33:02 PM -27.0220 -48.9760 41° Northeast 484 557 37,000  Level FlightAware ADS-B
Sat 12:33:42 PM -26.9560 -48.9120 41° Northeast 484 557 37,000  Level FlightAware ADS-B
Sat 12:34:27 PM -26.8790 -48.8370 41° Northeast 484 557 37,000  Level FlightAware ADS-B
Sat 12:35:07 PM -26.8110 -48.7710 41° Northeast 485 558 37,000  Level FlightAware ADS-B
Sat 12:35:52 PM -26.7340 -48.6980 40° Northeast 485 558 37,000  Level FlightAware ADS-B
Sat 12:38:00 PM -26.5436 -48.5655 32° Northeast  Level Estimated
Sat 12:38:02 PM -26.5120 -48.4840 32° Northeast 485 558 37,000  Level FlightAware ADS-B
Sat 12:38:47 PM -26.4380 -48.4130 41° Northeast 484 557 37,000  Level FlightAware ADS-B
Sat 12:39:27 PM -26.3690 -48.3470 41° Northeast 484 557 37,000  Level FlightAware ADS-B
Sat 12:40:12 PM -26.2910 -48.2720 41° Northeast 484 557 37,000  Level FlightAware ADS-B
Sat 12:40:52 PM -26.2270 -48.2080 42° Northeast 484 557 37,000  Level FlightAware ADS-B
Sat 12:41:32 PM -26.1610 -48.1420 42° Northeast 484 557 37,000  Level FlightAware ADS-B
Sat 12:42:17 PM -26.0820 -48.0640 42° Northeast 485 558 37,000  Level FlightAware ADS-B
Sat 12:42:57 PM -26.0150 -47.9980 42° Northeast 490 564 37,000  Level FlightAware ADS-B
Sat 12:43:37 PM -25.9490 -47.9330 42° Northeast 494 568 37,000  Level FlightAware ADS-B
Sat 12:44:22 PM -25.8700 -47.8550 42° Northeast 491 565 37,000  Level FlightAware ADS-B
Sat 12:45:02 PM -25.8030 -47.7890 42° Northeast 491 565 37,000  Level FlightAware ADS-B
Sat 12:45:47 PM -25.7260 -47.7130 42° Northeast 492 566 37,000  Level FlightAware ADS-B
Sat 12:46:27 PM -25.6560 -47.6450 41° Northeast 491 565 37,000  Level FlightAware ADS-B
Sat 12:47:07 PM -25.5920 -47.5820 42° Northeast 490 564 37,000  Level FlightAware ADS-B
Sat 12:48:07 PM -25.5110 -47.5030 41° Northeast 488 562 37,000  Level FlightAware ADS-B
Sat 12:48:47 PM -25.4380 -47.4320 41° Northeast 488 562 37,000  Level FlightAware ADS-B
Sat 12:49:12 PM -25.3880 -47.3840 41° Northeast 488 562 37,000  Level FlightAware ADS-B
Sat 12:50:02 PM -25.3120 -47.3090 42° Northeast 489 563 37,000  Level FlightAware ADS-B
Sat 12:50:42 PM -25.2440 -47.2440 41° Northeast 488 562 37,000  Level FlightAware ADS-B
Sat 12:51:17 PM -25.1730 -47.1740 42° Northeast 488 562 37,000  Level FlightAware ADS-B
Sat 12:52:02 PM -25.1050 -47.1090 41° Northeast 488 562 37,000  Level FlightAware ADS-B
Sat 12:52:57 PM -25.0070 -47.0140 41° Northeast 488 562 37,000 -568 Level FlightAware ADS-B
Sat 12:53:37 PM -24.9450 -46.9540 41° Northeast 485 558 36,100 -2,250 Descending FlightAware ADS-B
Sat 12:54:17 PM -24.8760 -46.8880 41° Northeast 488 562 34,000 -2,753 Descending FlightAware ADS-B
Sat 12:55:02 PM -24.8020 -46.8170 41° Northeast 482 555 32,200 -2,118 Descending FlightAware ADS-B
Sat 12:55:42 PM -24.7310 -46.7490 41° Northeast 489 563 31,000 -2,047 Descending FlightAware ADS-B
Sat 12:56:27 PM -24.6570 -46.6790 41° Northeast 467 537 29,300 -2,200 Descending FlightAware ADS-B
Sat 12:57:12 PM -24.5820 -46.6130 39° Northeast 448 516 27,700 -1,835 Descending FlightAware ADS-B
Sat 12:57:52 PM -24.5070 -46.5720 26° Northeast 437 503 26,700 -1,200 Descending FlightAware ADS-B
Sat 12:58:27 PM -24.4440 -46.5570 12° North 434 499 26,200 -960 Descending FlightAware ADS-B
Sat 12:59:07 PM -24.3640 -46.5380 12° North 434 499 25,500 -1,040 Descending FlightAware ADS-B
Sat 12:59:42 PM -24.2910 -46.5210 12° North 426 490 24,900 -1,360 Descending FlightAware ADS-B
Sat 01:00:22 PM -24.2120 -46.5030 12° North 418 481 23,800 -1,906 Descending FlightAware ADS-B
Sat 01:01:07 PM -24.1280 -46.4840 12° North 409 471 22,200 -2,000 Descending FlightAware ADS-B
Sat 01:01:52 PM -24.0550 -46.4670 12° North 401 461 20,800 -2,025 Descending FlightAware ADS-B
Sat 01:02:27 PM -23.9870 -46.4520 11° North 397 457 19,500 -2,047 Descending FlightAware ADS-B
Sat 01:03:17 PM -23.9000 -46.4320 12° North 391 450 17,900 -1,933 Descending FlightAware ADS-B
Sat 01:03:57 PM -23.8280 -46.4160 11° North 384 442 16,600 -1,950 Descending FlightAware ADS-B
Sat 01:04:37 PM -23.7570 -46.3990 12° North 377 434 15,300 -1,840 Descending FlightAware ADS-B
Sat 01:05:12 PM -23.7030 -46.3870 12° North 374 430 14,300 -2,000 Descending FlightAware ADS-B
Sat 01:05:52 PM -23.6180 -46.3980 353° North 365 420 12,800 -1,725 Descending FlightAware ADS-B
Sat 01:06:32 PM -23.5570 -46.4200 342° North 350 403 12,000 -1,200 Descending FlightAware ADS-B
Sat 01:07:17 PM -23.4880 -46.4460 341° North 323 372 11,100 -1,125 Descending FlightAware ADS-B
Sat 01:07:52 PM -23.4470 -46.4740 328° Northwest 300 345 10,500 -1,400 Descending FlightAware ADS-B
Sat 01:08:17 PM -23.4300 -46.5060 300° West 292 336 9,700 -2,057 Descending FlightAware ADS-B
Sat 01:08:27 PM -23.4230 -46.5190 300° West 290 334 9,300 -1,771 Descending FlightAware ADS-B
Sat 01:10:02 PM -23.4020 -46.6400 281° West 274 315 6,600 -1,375 Descending FlightAware ADS-B
Sat 01:12:00 PM -23.4321 -46.4695 101° East  Level Estimated
Sat 01:12:27 PM -23.4630 -46.5760 101° East 174 200 3,800  Level FlightAware ADS-B
Sat 01:13:37 PM -23.4510 -46.5300 74° East 154 177 3,000 -640 Descending FlightAware ADS-B
Sat 01:13:42 PM -23.4490 -46.5250 66° East 154 177 3,000 -686 Level FlightAware ADS-B
Sat 01:14:12 PM -23.4440 -46.5050 75° East 152 175 2,600 -800 Descending FlightAware ADS-B

Login

Don't have an account? Register now (free) for customized features, flight alerts, and more!